Time;durP1;ratioP1;P1;durP2;ratioP2;P2;SDS_P1;SDS_P2;PMS_P1;PMS_P2;Temp;Humidity;BMP_temperature;BMP_pressure;BME280_temperature;BME280_humidity;BME280_pressure;Samples;Min_cycle;Max_cycle;Signal;HPM_P1;HPM_P2
2022/07/02 00:02:07;;;;;;;4.95;4.47;;;;;;;20.36;100.00;98693.97;5091560;28;20138;-49
2022/07/02 00:04:36;;;;;;;4.50;3.90;;;;;;;20.27;100.00;98791.28;5091221;28;20146;-52
2022/07/02 00:07:02;;;;;;;6.28;3.90;;;;;;;20.31;100.00;98758.56;5091281;28;20052;-49
2022/07/02 00:09:28;;;;;;;9.00;4.75;;;;;;;20.22;100.00;98751.59;5091237;28;20044;-52
2022/07/02 00:11:57;;;;;;;5.47;4.30;;;;;;;20.14;100.00;98768.97;5091390;28;20052;-50
2022/07/02 00:14:25;;;;;;;4.85;3.92;;;;;;;20.15;100.00;98765.72;5091067;28;20059;-49
2022/07/02 00:16:53;;;;;;;6.20;4.47;;;;;;;20.13;100.00;98784.09;5090929;28;20048;-48
2022/07/02 00:19:21;;;;;;;6.38;4.22;;;;;;;20.10;100.00;98821.16;5091158;28;20048;-49
2022/07/02 00:21:47;;;;;;;5.80;4.20;;;;;;;20.03;100.00;98833.25;5091226;28;20055;-49
2022/07/02 00:24:14;;;;;;;5.88;4.32;;;;;;;20.00;100.00;98875.84;5091210;28;20056;-50
2022/07/02 00:26:48;;;;;;;4.95;4.45;;;;;;;19.94;100.00;98864.47;5091254;28;20491;-51
2022/07/02 00:29:21;;;;;;;5.47;4.80;;;;;;;19.91;100.00;98906.28;5091061;28;20056;-51
2022/07/02 00:31:49;;;;;;;4.53;4.20;;;;;;;19.91;100.00;98904.28;5090876;28;20090;-50
2022/07/02 00:34:16;;;;;;;9.95;4.35;;;;;;;19.82;100.00;98968.06;5091007;28;20293;-51
2022/07/02 00:36:43;;;;;;;7.13;5.60;;;;;;;19.77;100.00;98940.00;5090765;28;20499;-50
2022/07/02 00:39:09;;;;;;;5.60;4.53;;;;;;;19.75;100.00;98938.41;5090771;28;20051;-48
2022/07/02 00:41:36;;;;;;;6.97;4.68;;;;;;;19.70;100.00;98960.41;5090791;28;20048;-48
2022/07/02 00:44:05;;;;;;;5.18;4.68;;;;;;;19.67;100.00;98981.53;5090708;28;20051;-49
2022/07/02 00:46:33;;;;;;;5.38;4.32;;;;;;;19.55;100.00;99045.31;5090605;28;20143;-49
2022/07/02 00:49:01;;;;;;;4.93;4.53;;;;;;;19.57;100.00;99054.81;5090599;28;20104;-50
2022/07/02 00:51:27;;;;;;;8.65;5.25;;;;;;;19.56;100.00;99056.03;5090765;28;20218;-48
2022/07/02 00:53:54;;;;;;;7.40;4.82;;;;;;;19.44;100.00;99026.09;5090553;28;20680;-49
2022/07/02 00:56:20;;;;;;;5.00;4.60;;;;;;;19.48;100.00;99082.38;5090660;28;20048;-49
2022/07/02 00:58:47;;;;;;;5.40;4.80;;;;;;;19.41;100.00;99102.78;5090448;28;20496;-50
2022/07/02 01:01:14;;;;;;;5.22;4.63;;;;;;;19.36;100.00;99119.97;5090715;28;20056;-51
2022/07/02 01:03:45;;;;;;;5.95;5.35;;;;;;;19.35;100.00;99092.56;5090260;28;20521;-51
2022/07/02 01:06:13;;;;;;;6.82;5.10;;;;;;;19.24;100.00;99137.25;5090472;28;20463;-48
2022/07/02 01:11:26;;;;;;;5.18;4.68;;;;;;;19.30;100.00;99110.53;5090483;28;20549;-50
2022/07/02 01:13:55;;;;;;;5.65;5.05;;;;;;;19.30;100.00;99165.34;5090391;28;20502;-54
2022/07/02 01:16:21;;;;;;;5.05;4.65;;;;;;;19.23;100.00;99125.34;5090170;28;20058;-52
2022/07/02 01:18:47;;;;;;;6.68;4.82;;;;;;;19.14;100.00;99154.88;5090354;28;20445;-53
2022/07/02 01:21:14;;;;;;;6.13;5.03;;;;;;;19.13;100.00;99131.88;5090044;28;20185;-52
2022/07/02 01:23:41;;;;;;;7.22;4.88;;;;;;;19.16;100.00;99147.72;5090353;28;20052;-50
2022/07/02 01:26:08;;;;;;;5.70;4.90;;;;;;;19.17;100.00;99182.63;5089999;28;20100;-50
2022/07/02 01:28:34;;;;;;;4.82;4.43;;;;;;;19.18;100.00;99245.31;5090284;28;20139;-50
2022/07/02 01:31:00;;;;;;;5.55;5.10;;;;;;;19.20;100.00;99253.25;5089865;28;20048;-49
2022/07/02 01:33:27;;;;;;;5.40;5.00;;;;;;;19.19;100.00;99266.38;5089951;28;20139;-51
2022/07/02 01:35:53;;;;;;;5.13;4.63;;;;;;;19.21;100.00;99238.13;5089881;28;20050;-51
2022/07/02 01:38:19;;;;;;;5.72;5.18;;;;;;;19.18;100.00;99255.66;5089816;28;20048;-50
2022/07/02 01:40:46;;;;;;;5.35;4.85;;;;;;;19.12;100.00;99199.75;5089752;28;20554;-49
2022/07/02 01:43:12;;;;;;;6.18;4.60;;;;;;;19.09;100.00;99231.16;5089303;28;20139;-50
2022/07/02 01:45:39;;;;;;;6.85;5.07;;;;;;;18.96;100.00;99269.88;5090038;28;20052;-48
2022/07/02 01:48:05;;;;;;;8.10;4.60;;;;;;;19.08;100.00;99295.50;5090010;28;20503;-50
2022/07/02 01:50:35;;;;;;;6.05;4.72;;;;;;;19.01;100.00;99304.72;5090235;28;20044;-48
2022/07/02 01:53:01;;;;;;;5.65;5.15;;;;;;;19.01;100.00;99374.19;5089723;28;20599;-51
2022/07/02 01:55:27;;;;;;;5.68;5.18;;;;;;;19.03;100.00;99378.13;5089925;28;20138;-48
2022/07/02 01:57:54;;;;;;;7.95;5.38;;;;;;;18.95;100.00;99409.19;5089539;28;20063;-53
2022/07/02 02:00:21;;;;;;;6.68;5.47;;;;;;;18.95;100.00;99440.53;5089814;28;20044;-52
2022/07/02 02:02:47;;;;;;;6.32;5.15;;;;;;;18.96;100.00;99341.28;5089738;28;20465;-49
2022/07/02 02:05:13;;;;;;;5.55;4.88;;;;;;;18.98;100.00;99314.69;5089864;28;20048;-50
2022/07/02 02:07:39;;;;;;;4.82;4.43;;;;;;;19.03;100.00;99355.13;5089688;28;20044;-53
2022/07/02 02:10:07;;;;;;;5.43;4.93;;;;;;;19.01;100.00;99424.19;5089854;28;20143;-49
2022/07/02 02:12:33;;;;;;;5.03;4.63;;;;;;;19.05;100.00;99447.16;5089912;28;20495;-50
2022/07/02 02:15:00;;;;;;;5.68;4.95;;;;;;;18.93;100.00;99545.75;5089648;28;20060;-53
2022/07/02 02:17:27;;;;;;;5.55;5.00;;;;;;;18.94;100.00;99608.44;5089725;28;20048;-52
2022/07/02 02:19:53;;;;;;;5.25;4.75;;;;;;;18.81;100.00;99654.56;5089443;28;20499;-49
2022/07/02 02:22:19;;;;;;;6.85;5.18;;;;;;;18.79;100.00;99680.00;5089615;28;20522;-53
2022/07/02 02:24:45;;;;;;;5.55;5.05;;;;;;;18.94;100.00;99697.34;5089172;28;20056;-49
2022/07/02 02:27:11;;;;;;;6.40;5.57;;;;;;;19.31;100.00;99645.00;5089429;28;20404;-53
2022/07/02 02:29:38;;;;;;;5.72;4.68;;;;;;;19.56;100.00;99575.22;5089361;28;20048;-54
2022/07/02 02:32:06;;;;;;;5.30;4.90;;;;;;;19.95;100.00;99480.91;5089165;28;20093;-52
2022/07/02 02:34:32;;;;;;;5.10;4.60;;;;;;;20.45;100.00;99335.31;5089145;28;20147;-49
2022/07/02 02:36:58;;;;;;;5.70;5.20;;;;;;;20.61;100.00;99241.94;5089126;28;20052;-52
2022/07/02 02:39:24;;;;;;;5.00;4.50;;;;;;;20.99;100.00;99146.72;5089083;28;20054;-49
2022/07/02 02:41:51;;;;;;;6.43;4.75;;;;;;;21.26;100.00;99052.44;5089254;28;20051;-49
2022/07/02 02:44:17;;;;;;;6.70;4.72;;;;;;;21.57;100.00;98955.16;5089181;28;20138;-51
2022/07/02 02:46:43;;;;;;;5.45;4.93;;;;;;;21.76;100.00;98811.09;5089063;28;20143;-52
2022/07/02 02:49:10;;;;;;;4.78;4.43;;;;;;;22.05;100.00;98780.19;5089351;28;20050;-51
2022/07/02 02:51:36;;;;;;;4.57;4.28;;;;;;;22.28;100.00;98758.69;5089004;28;20085;-52
2022/07/02 02:54:03;;;;;;;5.28;4.78;;;;;;;22.43;100.00;98733.84;5089185;28;20073;-54
2022/07/02 02:56:29;;;;;;;6.30;4.70;;;;;;;22.66;100.00;98705.41;5091606;28;20146;-52
2022/07/02 02:58:55;;;;;;;6.60;4.93;;;;;;;22.81;100.00;98630.16;5092283;28;20562;-51
2022/07/02 03:01:21;;;;;;;5.15;4.68;;;;;;;23.11;100.00;98619.41;5092323;28;20107;-50
2022/07/02 03:03:48;;;;;;;5.20;4.70;;;;;;;23.21;100.00;98584.63;5092422;28;20088;-53
2022/07/02 03:06:15;;;;;;;4.95;4.55;;;;;;;23.60;100.00;98596.13;5092349;28;20060;-53
2022/07/02 03:08:41;;;;;;;5.22;4.72;;;;;;;23.64;100.00;98571.56;5092299;28;20055;-54
2022/07/02 03:11:07;;;;;;;4.97;4.47;;;;;;;24.05;100.00;98555.34;5092494;28;20048;-53
2022/07/02 03:13:33;;;;;;;6.95;4.90;;;;;;;24.33;100.00;98508.41;5092136;28;20427;-52
2022/07/02 03:15:59;;;;;;;5.80;5.22;;;;;;;24.56;100.00;98492.91;5092380;28;20525;-52
2022/07/02 03:18:26;;;;;;;4.90;4.47;;;;;;;24.80;100.00;98495.69;5092255;28;20048;-52
2022/07/02 03:20:52;;;;;;;5.93;4.93;;;;;;;25.15;100.00;98492.34;5092243;28;20131;-49
2022/07/02 03:23:19;;;;;;;5.30;4.80;;;;;;;25.22;100.00;98492.72;5091854;28;20083;-51
2022/07/02 03:25:45;;;;;;;8.88;4.90;;;;;;;25.53;100.00;98491.53;5091921;28;20052;-53
2022/07/02 03:28:11;;;;;;;5.78;5.10;;;;;;;25.70;100.00;98492.59;5092000;28;20051;-50
2022/07/02 03:30:38;;;;;;;6.32;5.00;;;;;;;25.88;100.00;98504.88;5092146;28;20048;-53
2022/07/02 03:33:04;;;;;;;7.82;4.63;;;;;;;26.32;100.00;98495.59;5092042;28;20175;-53
2022/07/02 03:35:30;;;;;;;5.68;4.70;;;;;;;26.44;100.00;98502.94;5092328;28;20091;-54
2022/07/02 03:37:56;;;;;;;5.40;4.90;;;;;;;26.86;100.00;98572.84;5092004;28;20415;-52
2022/07/02 03:40:24;;;;;;;4.88;4.43;;;;;;;27.30;100.00;98605.66;5091936;28;20151;-54
2022/07/02 03:42:50;;;;;;;5.28;4.85;;;;;;;27.63;100.00;98571.47;5091790;28;20067;-52
2022/07/02 03:45:16;;;;;;;4.93;4.63;;;;;;;27.66;100.00;98646.50;5091622;28;20055;-52
2022/07/02 03:47:42;;;;;;;4.43;3.97;;;;;;;27.73;100.00;98675.53;5091901;28;20044;-52
2022/07/02 03:50:09;;;;;;;4.50;4.20;;;;;;;28.26;100.00;98637.69;5091569;28;20083;-54
2022/07/02 03:52:36;;;;;;;5.15;4.70;;;;;;;28.30;100.00;98731.25;5091992;28;20091;-52
2022/07/02 03:55:03;;;;;;;4.95;4.38;;;;;;;28.64;100.00;98697.75;5091419;28;20047;-54
2022/07/02 03:57:30;;;;;;;5.68;4.35;;;;;;;28.75;100.00;98692.94;5091450;28;20060;-54
2022/07/02 03:59:57;;;;;;;4.28;3.90;;;;;;;28.81;100.00;98769.16;5091371;28;20052;-53
2022/07/02 04:02:23;;;;;;;5.57;4.68;;;;;;;29.45;100.00;98786.88;5091349;28;20048;-54
2022/07/02 04:04:49;;;;;;;5.13;4.63;;;;;;;29.62;100.00;98770.03;5091368;28;20052;-52
2022/07/02 04:07:16;;;;;;;4.85;4.30;;;;;;;29.62;100.00;98779.28;5090821;28;20142;-50
2022/07/02 04:09:42;;;;;;;4.88;4.15;;;;;;;29.83;100.00;98762.97;5091463;28;20087;-53
2022/07/02 04:12:09;;;;;;;6.07;4.10;;;;;;;29.35;100.00;98752.41;5091182;28;20051;-52
2022/07/02 04:14:36;;;;;;;5.82;4.40;;;;;;;29.57;100.00;98745.34;5091569;28;20052;-52
2022/07/02 04:17:02;;;;;;;8.10;4.68;;;;;;;30.11;100.00;98703.72;5091144;28;20093;-51
2022/07/02 04:19:29;;;;;;;11.75;4.72;;;;;;;30.05;100.00;98719.88;5091359;28;20048;-51
2022/07/02 04:21:55;;;;;;;9.90;4.50;;;;;;;30.20;100.00;98768.53;5091005;28;20051;-51
2022/07/02 04:24:21;;;;;;;11.45;4.97;;;;;;;30.16;100.00;98770.81;5091077;28;20052;-54
2022/07/02 04:26:48;;;;;;;7.70;4.32;;;;;;;30.40;100.00;98744.94;5090908;28;20056;-54
2022/07/02 04:29:14;;;;;;;8.38;4.28;;;;;;;30.50;100.00;98832.38;5090896;28;20062;-55
2022/07/02 04:31:41;;;;;;;4.35;3.75;;;;;;;29.61;100.00;98834.25;5090953;28;20048;-55
2022/07/02 04:34:07;;;;;;;5.57;4.20;;;;;;;29.77;100.00;98830.75;5091371;28;20134;-54
2022/07/02 04:36:33;;;;;;;4.35;3.95;;;;;;;29.55;100.00;98811.56;5091279;28;20047;-54
2022/07/02 04:39:01;;;;;;;4.53;3.88;;;;;;;29.37;100.00;98737.78;5090899;28;20510;-54
2022/07/02 04:41:28;;;;;;;6.40;4.78;;;;;;;29.19;100.00;98745.41;5091190;28;20048;-54
2022/07/02 04:43:54;;;;;;;6.20;3.92;;;;;;;29.22;100.00;98676.63;5090778;28;20052;-54
2022/07/02 04:46:20;;;;;;;5.47;4.30;;;;;;;29.25;100.00;98725.66;5091267;28;20431;-54
2022/07/02 04:48:47;;;;;;;6.75;4.35;;;;;;;29.33;100.00;98782.44;5090772;28;20052;-54
2022/07/02 04:51:14;;;;;;;6.30;4.80;;;;;;;29.13;100.00;98780.50;5090633;28;20083;-51
2022/07/02 04:53:40;;;;;;;5.03;4.70;;;;;;;29.65;100.00;98814.22;5090676;28;20064;-55
2022/07/02 04:56:06;;;;;;;5.40;4.30;;;;;;;30.00;100.00;98743.25;5090775;28;20095;-51
2022/07/02 04:58:32;;;;;;;5.15;4.18;;;;;;;29.79;100.00;98731.38;5090457;28;20095;-54
2022/07/02 05:00:59;;;;;;;10.05;4.43;;;;;;;30.20;100.00;98867.47;5090482;28;20051;-55
2022/07/02 05:03:25;;;;;;;6.40;4.80;;;;;;;30.59;100.00;98878.19;5090645;28;20484;-54
2022/07/02 05:05:52;;;;;;;5.55;4.18;;;;;;;30.35;100.00;98891.97;5090505;28;20139;-51
2022/07/02 05:08:23;;;;;;;5.47;4.28;;;;;;;30.70;100.00;98897.25;5090315;28;20048;-53
2022/07/02 05:10:49;;;;;;;4.68;4.18;;;;;;;30.54;100.00;98921.34;5090296;28;20056;-54
2022/07/02 05:13:15;;;;;;;7.85;4.57;;;;;;;30.78;100.00;98954.91;5090569;28;20052;-54
2022/07/02 05:15:42;;;;;;;4.65;4.22;;;;;;;31.12;100.00;98938.81;5090217;28;20181;-54
2022/07/02 05:18:08;;;;;;;6.38;4.32;;;;;;;31.07;100.00;98970.69;5089426;28;20079;-54
2022/07/02 05:20:34;;;;;;;6.70;4.20;;;;;;;31.90;100.00;98985.53;5090169;28;20522;-54
2022/07/02 05:23:01;;;;;;;5.43;4.63;;;;;;;32.24;100.00;98991.16;5090077;28;20193;-53
2022/07/02 05:25:28;;;;;;;5.18;4.47;;;;;;;32.46;100.00;99027.25;5090281;28;20119;-54
2022/07/02 05:27:54;;;;;;;7.95;4.13;;;;;;;32.39;100.00;98991.63;5090247;28;20051;-57
2022/07/02 05:30:20;;;;;;;4.88;4.07;;;;;;;32.37;100.00;99041.66;5090353;28;20143;-54
2022/07/02 05:32:46;;;;;;;7.78;4.65;;;;;;;32.06;100.00;99015.91;5090356;28;20529;-53
2022/07/02 05:35:13;;;;;;;10.85;5.03;;;;;;;32.42;100.00;99049.38;5090285;28;20105;-52
2022/07/02 05:37:39;;;;;;;11.30;4.75;;;;;;;31.33;100.00;99030.00;5089968;28;20051;-51
2022/07/02 05:40:07;;;;;;;5.03;4.43;;;;;;;31.56;100.00;99008.16;5090143;28;20044;-54
2022/07/02 05:42:33;;;;;;;3.83;3.53;;;;;;;30.48;100.00;98991.25;5089884;28;20109;-54
2022/07/02 05:45:00;;;;;;;6.35;3.95;;;;;;;30.84;100.00;98981.16;5090097;28;20155;-54
2022/07/02 05:47:26;;;;;;;4.35;3.95;;;;;;;31.48;100.00;98987.28;5089686;28;20579;-54
2022/07/02 05:49:53;;;;;;;6.28;3.95;;;;;;;31.30;100.00;99007.56;5090332;28;20051;-55
2022/07/02 05:52:19;;;;;;;5.72;4.07;;;;;;;30.88;100.00;98888.28;5089514;28;20109;-52
2022/07/02 05:54:45;;;;;;;4.90;3.85;;;;;;;31.29;100.00;98887.84;5089963;28;20059;-54
2022/07/02 05:57:12;;;;;;;5.53;4.38;;;;;;;31.63;100.00;99012.53;5089834;28;20055;-53
2022/07/02 05:59:39;;;;;;;6.25;4.30;;;;;;;32.08;100.00;98987.03;5089639;28;20076;-53
2022/07/02 06:02:06;;;;;;;4.47;3.45;;;;;;;32.08;100.00;98967.19;5089984;28;20130;-52
2022/07/02 06:04:32;;;;;;;9.93;3.97;;;;;;;32.14;100.00;98961.50;5089379;28;20541;-52
2022/07/02 06:09:42;;;;;;;5.97;3.88;;;;;;;32.33;100.00;99061.78;5089517;28;20580;-52
2022/07/02 06:12:09;;;;;;;9.85;3.78;;;;;;;32.67;100.00;99041.88;5089748;28;20083;-55
2022/07/02 06:14:36;;;;;;;4.57;3.90;;;;;;;32.89;100.00;98999.22;5089262;28;20098;-54
2022/07/02 06:17:03;;;;;;;4.60;3.90;;;;;;;33.38;100.00;99081.88;5089510;28;20056;-55
2022/07/02 06:19:29;;;;;;;5.93;3.80;;;;;;;33.57;100.00;99116.19;5089374;28;20048;-55
2022/07/02 06:21:55;;;;;;;8.00;3.47;;;;;;;33.58;100.00;99102.72;5089266;28;20132;-55
2022/07/02 06:24:22;;;;;;;4.30;3.53;;;;;;;34.31;100.00;99122.91;5089468;28;20405;-53
2022/07/02 06:26:48;;;;;;;6.35;3.42;;;;;;;34.30;100.00;99069.41;5089451;28;20052;-56
2022/07/02 06:29:14;;;;;;;7.18;3.75;;;;;;;34.44;100.00;99131.59;5090516;28;20422;-57
2022/07/02 06:31:41;;;;;;;4.30;3.90;;;;;;;33.26;100.00;99160.72;5092716;28;20048;-56
2022/07/02 06:34:07;;;;;;;4.72;3.80;;;;;;;33.12;100.00;99143.97;5093040;28;20476;-57
2022/07/02 06:36:33;;;;;;;6.15;3.80;;;;;;;34.34;100.00;99138.16;5092709;28;20047;-56
2022/07/02 06:39:00;;;;;;;5.55;3.78;;;;;;;34.20;100.00;99092.50;5092972;28;20063;-55
2022/07/02 06:44:10;;;;;;;5.32;3.45;;;;;;;34.30;100.00;99117.78;5092938;28;20626;-55
2022/07/02 06:46:37;;;;;;;4.72;3.60;;;;;;;33.85;100.00;99135.13;5092838;28;20772;-55
2022/07/02 06:49:04;;;;;;;6.72;3.67;;;;;;;33.85;100.00;99098.16;5092718;28;20043;-56
2022/07/02 06:51:30;;;;;;;4.50;4.10;;;;;;;34.18;100.00;99119.91;5093139;28;20076;-56
2022/07/02 06:54:00;;;;;;;5.35;3.88;;;;;;;34.13;100.00;99100.84;5092596;28;20090;-56
2022/07/02 06:56:28;;;;;;;3.70;3.40;;;;;;;34.10;100.00;99111.19;5093068;28;20453;-55
2022/07/02 06:58:54;;;;;;;8.77;3.97;;;;;;;34.11;100.00;99097.75;5092291;28;20530;-55
2022/07/02 07:01:21;;;;;;;8.10;3.60;;;;;;;34.05;100.00;99117.69;5093083;28;20474;-55
2022/07/02 07:03:47;;;;;;;7.25;4.18;;;;;;;33.68;100.00;99140.91;5092473;28;20048;-55
2022/07/02 07:06:14;;;;;;;6.00;4.00;;;;;;;34.34;100.00;99150.31;5093005;28;20159;-55
2022/07/02 07:08:41;;;;;;;4.07;3.60;;;;;;;34.46;100.00;99148.16;5092530;28;20384;-56
2022/07/02 07:11:07;;;;;;;6.18;3.85;;;;;;;34.99;100.00;99165.78;5092708;28;20059;-56
2022/07/02 07:13:33;;;;;;;3.95;3.45;;;;;;;35.25;100.00;99161.63;5092451;28;20052;-56
2022/07/02 07:15:59;;;;;;;5.15;3.58;;;;;;;34.84;100.00;99156.88;5092304;28;20128;-56
2022/07/02 07:18:26;;;;;;;6.20;3.72;;;;;;;35.04;100.00;99164.97;5092638;28;20132;-57
2022/07/02 07:20:53;;;;;;;7.93;3.55;;;;;;;35.10;100.00;99168.53;5091798;28;20048;-56
2022/07/02 07:23:20;;;;;;;6.88;3.40;;;;;;;33.95;100.00;99205.38;5092253;28;20460;-56
2022/07/02 07:25:46;;;;;;;6.43;3.58;;;;;;;33.37;100.00;99170.50;5091912;28;20135;-58
2022/07/02 07:28:12;;;;;;;5.28;3.53;;;;;;;33.62;100.00;99160.88;5092278;28;20052;-56
2022/07/02 07:30:38;;;;;;;5.78;3.40;;;;;;;34.83;100.00;99147.56;5091702;28;20048;-58
2022/07/02 07:33:05;;;;;;;5.93;3.40;;;;;;;35.48;100.00;99151.50;5092079;28;20134;-57
2022/07/02 07:35:31;;;;;;;13.32;3.60;;;;;;;36.20;100.00;99145.34;5091722;28;20068;-56
2022/07/02 07:37:58;;;;;;;5.88;3.28;;;;;;;36.15;100.00;99166.16;5091870;28;20435;-57
2022/07/02 07:40:26;;;;;;;6.63;3.22;;;;;;;36.23;100.00;99184.22;5091229;28;20056;-57
2022/07/02 07:42:52;;;;;;;9.18;3.30;;;;;;;36.22;100.00;99188.38;5091604;28;20097;-58
2022/07/02 07:45:18;;;;;;;5.03;3.40;;;;;;;35.99;100.00;99194.41;5091561;28;20503;-58
2022/07/02 07:47:45;;;;;;;8.07;3.70;;;;;;;35.86;100.00;99185.78;5091548;28;20105;-58
2022/07/02 07:50:11;;;;;;;6.43;3.47;;;;;;;35.92;100.00;99177.13;5091962;28;20048;-56
2022/07/02 07:52:37;;;;;;;5.70;3.13;;;;;;;34.87;100.00;99161.50;5091563;28;20044;-55
2022/07/02 07:55:04;;;;;;;3.65;3.35;;;;;;;34.40;100.00;99173.03;5091909;28;20059;-53
2022/07/02 07:57:31;;;;;;;5.50;3.30;;;;;;;34.81;100.00;99175.78;5091534;28;20484;-54
2022/07/02 07:59:58;;;;;;;4.65;3.40;;;;;;;34.89;100.00;99176.00;5091767;28;20059;-55
2022/07/02 08:02:24;;;;;;;6.40;3.15;;;;;;;35.30;100.00;99201.47;5091300;28;20059;-58
2022/07/02 08:04:50;;;;;;;5.20;3.55;;;;;;;34.29;100.00;99193.03;5091083;28;20048;-56
2022/07/02 08:07:16;;;;;;;3.85;3.15;;;;;;;35.76;100.00;99185.38;5091337;28;20044;-55
2022/07/02 08:09:42;;;;;;;6.28;3.50;;;;;;;35.26;100.00;99194.53;5091249;28;20126;-56
2022/07/02 08:12:09;;;;;;;10.07;3.20;;;;;;;35.46;99.03;99210.38;5091264;28;20064;-56
2022/07/02 08:14:36;;;;;;;6.75;3.38;;;;;;;35.28;100.00;99203.31;5091328;28;20052;-55
2022/07/02 08:17:02;;;;;;;8.63;3.80;;;;;;;35.28;100.00;99174.81;5091229;28;20497;-54
2022/07/02 08:19:29;;;;;;;7.10;3.60;;;;;;;36.16;100.00;99170.59;5091094;28;20052;-57
2022/07/02 08:21:55;;;;;;;6.93;3.33;;;;;;;35.86;100.00;99187.84;5091360;28;20044;-57
2022/07/02 08:24:21;;;;;;;7.53;3.15;;;;;;;35.81;98.41;99215.13;5090904;28;20139;-54
2022/07/02 08:26:48;;;;;;;4.47;3.10;;;;;;;33.88;100.00;99220.16;5091243;28;20048;-55
2022/07/02 08:29:14;;;;;;;3.22;2.65;;;;;;;35.01;93.09;99253.56;5090920;28;20059;-57
2022/07/02 08:31:41;;;;;;;2.90;2.70;;;;;;;34.78;91.80;99244.44;5091099;28;20138;-57
2022/07/02 08:34:07;;;;;;;8.15;3.20;;;;;;;34.80;98.17;99227.59;5091012;28;20197;-57
2022/07/02 08:36:34;;;;;;;4.35;2.70;;;;;;;34.65;95.06;99242.22;5090912;28;20135;-56
2022/07/02 08:39:00;;;;;;;3.55;3.00;;;;;;;35.11;92.95;99255.53;5090867;28;20054;-55
2022/07/02 08:41:28;;;;;;;4.70;2.92;;;;;;;34.92;95.17;99243.25;5091113;28;20230;-57
2022/07/02 08:43:55;;;;;;;4.07;2.75;;;;;;;35.15;97.85;99217.44;5090742;28;20060;-57
2022/07/02 08:46:24;;;;;;;4.82;2.85;;;;;;;35.69;99.07;99219.44;5090748;28;20062;-57
2022/07/02 08:48:52;;;;;;;3.03;2.83;;;;;;;34.63;90.62;99248.44;5090644;28;20051;-57
2022/07/02 08:51:21;;;;;;;3.00;2.80;;;;;;;34.17;97.15;99224.41;5090494;28;20048;-56
2022/07/02 08:53:48;;;;;;;5.55;2.90;;;;;;;35.02;100.00;99210.34;5090887;28;20502;-57
2022/07/02 08:56:14;;;;;;;3.20;2.90;;;;;;;34.88;100.00;99191.53;5090452;28;20074;-56
2022/07/02 08:58:41;;;;;;;6.55;2.97;;;;;;;35.84;99.22;99199.78;5090616;28;20097;-57
2022/07/02 09:01:09;;;;;;;3.13;2.80;;;;;;;35.96;94.50;99223.25;5090656;28;20506;-57
2022/07/02 09:03:38;;;;;;;5.75;3.10;;;;;;;33.98;100.00;99197.88;5090254;28;20089;-56
2022/07/02 09:06:06;;;;;;;3.20;3.00;;;;;;;34.57;99.40;99202.16;5090439;28;20481;-57
2022/07/02 09:08:33;;;;;;;3.85;3.13;;;;;;;33.37;100.00;99191.16;5090224;28;20051;-55
2022/07/02 09:11:02;;;;;;;3.40;3.10;;;;;;;34.06;100.00;99178.22;5090340;28;20052;-55
2022/07/02 09:13:30;;;;;;;3.42;3.13;;;;;;;34.17;100.00;99172.44;5090272;28;20134;-55
2022/07/02 09:15:56;;;;;;;3.45;3.15;;;;;;;34.59;99.05;99193.88;5090655;28;20086;-57
2022/07/02 09:18:23;;;;;;;4.63;2.90;;;;;;;35.53;94.80;99213.41;5090383;28;20052;-55
2022/07/02 09:20:49;;;;;;;7.03;3.03;;;;;;;33.92;100.00;99185.75;5090462;28;20052;-55
2022/07/02 09:23:21;;;;;;;5.00;3.17;;;;;;;34.52;98.48;99205.81;5090095;28;20131;-55
2022/07/02 09:25:48;;;;;;;5.05;3.35;;;;;;;35.23;100.00;99175.66;5090275;28;20047;-56
2022/07/02 09:28:15;;;;;;;3.90;3.17;;;;;;;35.77;98.65;99184.06;5089848;28;20048;-55
2022/07/02 09:30:42;;;;;;;4.07;3.00;;;;;;;34.79;95.94;99198.34;5089917;28;20093;-55
2022/07/02 09:33:28;;;;;;;5.30;2.92;;;;;;;34.36;98.34;99201.03;5090021;28;20104;-54
2022/07/02 09:35:55;;;;;;;3.53;3.05;;;;;;;34.95;99.78;99178.78;5090071;28;20185;-57
2022/07/02 09:38:22;;;;;;;4.05;3.40;;;;;;;34.72;100.00;99187.53;5090136;28;20052;-55
2022/07/02 09:40:52;;;;;;;4.13;3.00;;;;;;;34.26;100.00;99180.66;5089864;28;20087;-54
2022/07/02 09:43:25;;;;;;;4.07;3.05;;;;;;;33.70;100.00;99159.00;5090060;28;20062;-57
2022/07/02 09:45:52;;;;;;;3.20;3.00;;;;;;;33.27;100.00;99138.75;5089900;28;20138;-54
2022/07/02 09:48:18;;;;;;;4.72;3.45;;;;;;;32.84;100.00;99105.03;5090087;28;20052;-54
2022/07/02 09:50:44;;;;;;;4.95;3.47;;;;;;;32.21;100.00;99091.44;5090014;28;20048;-55
2022/07/02 09:53:12;;;;;;;5.03;3.65;;;;;;;32.88;100.00;99096.25;5089930;28;20066;-51
2022/07/02 09:55:39;;;;;;;3.95;3.47;;;;;;;32.94;100.00;99111.22;5089955;28;20044;-54
2022/07/02 09:58:06;;;;;;;7.00;3.58;;;;;;;34.01;100.00;99122.13;5089619;28;20048;-54
2022/07/02 10:00:34;;;;;;;5.85;3.50;;;;;;;33.02;100.00;99132.13;5090036;28;20603;-55
2022/07/02 10:03:01;;;;;;;9.43;3.60;;;;;;;32.56;100.00;99102.28;5089756;28;20221;-54
2022/07/02 10:05:31;;;;;;;4.85;3.75;;;;;;;33.43;100.00;99125.78;5092379;28;20160;-54
2022/07/02 10:07:58;;;;;;;3.95;3.53;;;;;;;33.25;100.00;99093.81;5093144;28;20142;-54
2022/07/02 10:10:31;;;;;;;8.88;3.90;;;;;;;33.39;100.00;99111.84;5093455;28;20540;-55
2022/07/02 10:12:58;;;;;;;;;;;;;;;32.41;100.00;99135.78;5093507;28;20418;-52
2022/07/02 10:15:29;;;;;;;3.70;3.40;;;;;;;32.89;100.00;99129.03;5093008;28;19991;-52
2022/07/02 10:17:57;;;;;;;4.57;3.60;;;;;;;32.75;100.00;99120.28;5093055;28;20146;-54
2022/07/02 10:20:23;;;;;;;6.45;3.58;;;;;;;33.01;100.00;99124.91;5093045;28;20098;-53
2022/07/02 10:22:50;;;;;;;4.82;3.30;;;;;;;33.68;100.00;99127.47;5093232;28;20491;-53
2022/07/02 10:25:18;;;;;;;5.72;3.00;;;;;;;33.88;100.00;99146.22;5092659;28;20052;-54
2022/07/02 10:27:46;;;;;;;6.75;3.75;;;;;;;33.76;100.00;99152.50;5092923;28;20522;-53
2022/07/02 10:30:13;;;;;;;4.60;3.38;;;;;;;33.91;100.00;99142.31;5092729;28;20461;-53
2022/07/02 10:32:49;;;;;;;3.33;3.00;;;;;;;33.46;100.00;99148.25;5092912;28;20074;-52
2022/07/02 10:35:16;;;;;;;5.05;3.17;;;;;;;33.36;100.00;99129.94;5092713;28;20516;-54
2022/07/02 10:37:44;;;;;;;3.72;3.28;;;;;;;33.50;100.00;99139.47;5093000;28;20079;-53
2022/07/02 10:40:17;;;;;;;3.83;3.13;;;;;;;33.89;100.00;99121.38;5092701;28;20554;-53
2022/07/02 10:42:45;;;;;;;7.18;3.10;;;;;;;33.09;100.00;99125.13;5092555;28;20058;-54
2022/07/02 10:45:17;;;;;;;4.70;3.53;;;;;;;33.18;100.00;99133.38;5092621;28;20059;-53
2022/07/02 10:47:54;;;;;;;4.82;3.60;;;;;;;31.58;100.00;99144.41;5092598;28;20052;-53
2022/07/02 10:50:20;;;;;;;4.00;3.30;;;;;;;32.42;100.00;99135.28;5092787;28;20125;-51
2022/07/02 10:52:51;;;;;;;4.43;3.22;;;;;;;32.60;100.00;99114.13;5092738;28;20066;-51
2022/07/02 10:55:25;;;;;;;3.92;2.85;;;;;;;31.62;100.00;99136.44;5092319;28;20177;-53
2022/07/02 10:57:56;;;;;;;4.72;3.45;;;;;;;32.95;100.00;99115.59;5092360;28;20063;-53
2022/07/02 11:00:27;;;;;;;3.78;3.20;;;;;;;33.40;100.00;99098.41;5092559;28;20416;-50
2022/07/02 11:02:56;;;;;;;5.18;3.53;;;;;;;32.17;100.00;99108.72;5092461;28;20056;-52
2022/07/02 11:05:22;;;;;;;3.72;3.03;;;;;;;32.94;100.00;99136.78;5092292;28;20121;-50
2022/07/02 11:07:48;;;;;;;4.35;3.40;;;;;;;32.38;100.00;99119.81;5092314;28;20055;-50
2022/07/02 11:10:15;;;;;;;5.40;3.50;;;;;;;31.53;100.00;99138.72;5092227;28;20469;-53
2022/07/02 11:12:46;;;;;;;4.05;3.35;;;;;;;30.50;100.00;99093.38;5092435;28;20475;-51
2022/07/02 11:15:17;;;;;;;3.53;3.22;;;;;;;31.21;100.00;99087.84;5091393;28;20052;-52
2022/07/02 11:17:48;;;;;;;6.22;3.20;;;;;;;30.52;100.00;99082.31;5091812;28;20052;-53
2022/07/02 11:20:22;;;;;;;4.40;3.47;;;;;;;30.84;100.00;99074.56;5091927;28;20143;-53
2022/07/02 11:22:49;;;;;;;4.32;3.80;;;;;;;30.81;100.00;99086.91;5092047;28;20051;-53
2022/07/02 11:25:15;;;;;;;3.92;3.40;;;;;;;30.65;100.00;99051.53;5091914;28;20112;-50
2022/07/02 11:27:42;;;;;;;5.05;3.88;;;;;;;30.74;100.00;99061.88;5091961;28;20130;-50
2022/07/02 11:30:09;;;;;;;5.07;3.45;;;;;;;30.44;100.00;99058.63;5092339;28;20125;-52
2022/07/02 11:32:36;;;;;;;4.32;3.58;;;;;;;30.82;100.00;99045.97;5092016;28;20139;-51
2022/07/02 11:35:03;;;;;;;3.70;3.40;;;;;;;31.16;100.00;99049.75;5092147;28;20404;-49